AirNav   Bose Proflight Series 2 Wireless viation Headset
 
 985 users online  

MN92 Lennartson Airport
Proctor, Minnesota, USA

GOING TO PROCTOR?


FAA INFORMATION EFFECTIVE 10 OCTOBER 2019

Location

FAA Identifier: MN92
Lat/Long: 46-44-59.7920N 092-18-00.6880W
46-44.996533N 092-18.011467W
46.7499422,-92.3001911
(estimated)
Elevation: 1250 ft. / 381 m (estimated)
Variation: 02E (1985)
From city: 3 miles W of PROCTOR, MN
Time zone: UTC -5 (UTC -6 during Standard Time)
Zip code: 55810

Airport Operations

Airport use: Private use. Permission required prior to landing
Activation date: 06/1969
Control tower: no
ARTCC: MINNEAPOLIS CENTER
FSS: PRINCETON FLIGHT SERVICE STATION
Attendance: DAYLIGHT HOURS
Wind indicator: yes
Segmented circle: no

Airport Communications

WX ASOS at DLH (7 nm NE): PHONE 218-740-5977
WX AWOS-3 at COQ (9 nm W): 118.525 (218-879-0783)
WX AWOS-3 at SUW (9 nm SE): 120.35 (715-394-0283)
WX AWOS-3 at DYT (11 nm E): 119.275 (218-720-4886)

Nearby radio navigation aids

VOR radial/distance  VOR name  Freq  Var
DLHr227/5.1DULUTH VORTAC112.6005E
HIBr151/37.0HIBBING VOR/DME110.8002E

 
NDB name  Hdg/Dist  Freq  Var  ID
PYKLA159/6.237900EDL -.. .-..
CLOQUET070/8.933501WCOQ -.-. --- --.-
MOOSE LAKE044/28.936202EMZH -- --.. ....

Airport Services

Airframe service: NONE
Powerplant service: NONE

Runway Information

Runway N/S

Dimensions: 2000 x 75 ft. / 610 x 23 m
Surface: turf
RUNWAY N  RUNWAY S
Traffic pattern: leftleft

Airport Ownership and Management from official FAA records

Ownership: Privately-owned
Owner: ROBERT D. LENNARTSON
6082 LAVAQUE RD
DULUTH, MN 55803
Phone (218) 390-0352
Manager: STEVEN LENNARTSON
6082 LAVAQUE RD
DULUTH, MN 55803
Phone (218) 721-4085

Airport Operational Statistics

Aircraft based on the field: 1
Single engine airplanes: 1
    

Additional Remarks

SKI ACFT ONLY WINTERS.
FOR CD CTC MINNEAPOLIS ARTCC AT 651-463-5588.

Instrument Procedures

There are no published instrument procedures at MN92.

Some nearby airports with instrument procedures:

KDLH - Duluth International Airport (7 nm NE)
KCOQ - Cloquet/Carlton County Airport (9 nm W)
KSUW - Richard I Bong Airport (9 nm SE)
KMZH - Moose Lake Carlton County Airport (29 nm SW)
KTWM - Richard B Helgeson Airport (29 nm NE)
 
Loc | Ops | Rwys | IFR | FBO | Links
Com | Nav | Svcs | Stats | Notes
Area around MN92 (Lennartson Airport)
 
Road maps at: MapQuest Bing Google
 
Aerial photo
No photo
 
Sectional chart

 
Airport distance calculator
Flying to Lennartson Airport? Find the distance to fly.

From to MN92

Sunrise and sunset
Times for 20-Oct-2019
 Local
(UTC-5)
 Zulu
(UTC)
Morning civil twilight07:0412:04
Sunrise07:3512:35
Sunset18:1323:13
Evening civil twilight18:4423:44

Current date and time
Zulu (UTC)  20-Oct-2019 15:50:09
Local (UTC-5)  20-Oct-2019 10:50:09
 
METAR
KDLH 
7nm NE 
201455Z VRB03KT 10SM CLR 12/03 A2984 RMK AO2 SLP113 T01170028 51020
KCOQ 
9nm W 
201536Z AUTO 00000KT 10SM CLR 12/02 A2985 RMK AO2
KDYT 
11nm E 
201535Z AUTO 00000KT 10SM BKN060 09/02 A2986 RMK AO2
TAF
KDLH 
7nm NE 
201124Z 2012/2112 VRB03KT P6SM FEW250 FM202200 10006KT P6SM BKN250 FM210500 08008KT P6SM OVC100 FM211000 08011KT P6SM OVC040
NOTAMs
Click for the latest NOTAMs
NOTAMs are issued by the DoD/FAA and will open in a separate window not controlled by AirNav.

 

 
 

Would you like to see your business listed on this page?

 If your business provides an interesting product or service to pilots, flight crews, aircraft, or users of the Lennartson Airport, you should consider listing it here.  To start the listing process, click on the button below
 
Add a business
 

Other Pages about Lennartson Airport

Update a link
 
Copyright © AirNav, LLC. All rights reserved. Privacy Policy  Contact